Terminal Aerodrome Forecast
Issued by NWS Des Moines, IA

Home | Current Version | Previous Version | Text Only | Print | Product List | Glossary On
Versions: 1 2 3 4 5 6 7 8 9 10 11 12 13 14 15 16 17 18 19 20 21 22
000
FTUS43 KDMX 181735
TAFALO
TAF
KALO 181735Z 1818/1918 17020G29KT P6SM SCT200 WS020/20045KT
     FM182200 17013G19KT P6SM FEW200
     FM190100 17009KT P6SM FEW200 WS020/20045KT
     FM190400 16007KT 6SM BR SCT025 BKN040
     FM191000 VRB05KT 3SM -DZ BR BKN010 BKN025
     FM191200 09006KT 2SM -RA OVC005=

USA.gov is the U.S. government's official web portal to all federal, state and local government web resources and services.